createdAt,value
2024-01-25T01:43:19.450Z,8.78
2024-01-25T01:46:40.445Z,8.78
2024-01-25T01:49:44.226Z,8.03
2024-01-25T01:52:49.142Z,8.23
2024-01-25T01:55:52.833Z,8.24
2024-01-25T01:59:06.949Z,8.28
2024-01-25T02:02:10.388Z,8.23
2024-01-25T02:05:14.532Z,8.03
2024-01-25T02:08:17.917Z,8.18
2024-01-25T02:11:21.495Z,8.25
2024-01-25T02:14:24.462Z,8.33
2024-01-25T02:17:27.824Z,8.12
2024-01-25T02:20:30.919Z,8.28
2024-01-25T02:23:34.398Z,8.39
2024-01-25T02:26:37.660Z,8.44
2024-01-25T02:29:40.937Z,8.87
2024-01-25T02:32:45.434Z,8.65
2024-01-25T02:35:54.459Z,8.57
2024-01-25T02:38:58.442Z,8.52
2024-01-25T02:42:01.579Z,8.78
2024-01-25T02:45:04.775Z,8.77
2024-01-25T02:48:08.487Z,8.45
2024-01-25T02:51:11.383Z,8.37
2024-01-25T02:54:14.372Z,8.73
2024-01-25T02:57:16.987Z,8.63
2024-01-25T03:00:20.173Z,8.59
2024-01-25T03:03:24.801Z,8.76
2024-01-25T03:06:28.573Z,8.66
2024-01-25T03:09:31.647Z,8.93
2024-01-25T03:12:35.182Z,8.85
2024-01-25T03:15:39.356Z,8.87
2024-01-25T03:18:43.595Z,9.01
2024-01-25T03:21:46.414Z,8.90
2024-01-25T03:24:49.741Z,8.84
2024-01-25T03:27:52.825Z,8.77
2024-01-25T03:30:56.189Z,8.78
2024-01-25T03:33:59.056Z,8.89
2024-01-25T03:37:02.396Z,8.71
2024-01-25T03:40:06.405Z,8.73
2024-01-25T03:43:18.850Z,8.68
2024-01-25T03:46:24.221Z,8.56
2024-01-25T03:49:28.731Z,8.40
2024-01-25T03:52:32.028Z,8.69
2024-01-25T03:55:35.540Z,8.51
2024-01-25T03:58:38.504Z,8.45
2024-01-25T04:01:49.796Z,8.41
2024-01-25T04:04:53.536Z,8.39
2024-01-25T04:07:56.735Z,8.66
2024-01-25T04:10:59.688Z,8.44
2024-01-25T04:14:02.731Z,8.58
2024-01-25T04:17:05.998Z,8.33
2024-01-25T04:20:09.133Z,8.09
2024-01-25T04:23:12.660Z,8.17
2024-01-25T04:26:17.613Z,8.18
2024-01-25T04:29:20.855Z,8.37
2024-01-25T04:32:24.962Z,8.28
2024-01-25T04:35:28.233Z,8.09
2024-01-25T04:38:33.835Z,8.10
2024-01-25T04:41:37.930Z,7.93
2024-01-25T04:44:40.767Z,7.84
2024-01-25T04:47:44.375Z,7.98
2024-01-25T04:50:50.153Z,8.03
2024-01-25T04:53:53.489Z,8.03
2024-01-25T04:56:56.835Z,7.74
2024-01-25T05:00:00.217Z,7.71
2024-01-25T05:03:03.533Z,7.53
2024-01-25T05:06:07.038Z,7.77
2024-01-25T05:09:10.237Z,7.91
2024-01-25T05:12:13.758Z,7.88
2024-01-25T05:15:16.894Z,7.86
2024-01-25T05:18:20.181Z,7.94
2024-01-25T05:21:24.242Z,7.92
2024-01-25T05:24:27.595Z,7.99
2024-01-25T05:27:30.777Z,7.97
2024-01-25T05:30:37.515Z,8.14
2024-01-25T05:33:41.203Z,8.03
2024-01-25T05:36:46.160Z,7.89
2024-01-25T05:39:49.278Z,8.11
2024-01-25T05:42:52.495Z,7.79
2024-01-25T05:45:55.396Z,7.94
2024-01-25T05:48:59.203Z,7.88
2024-01-25T05:52:02.562Z,7.70
2024-01-25T05:55:07.108Z,7.32
2024-01-25T05:58:10.240Z,7.46
2024-01-25T06:01:13.809Z,7.24
2024-01-25T06:04:17.477Z,7.11
2024-01-25T06:07:21.895Z,6.93
2024-01-25T06:10:25.550Z,6.85
2024-01-25T06:13:33.467Z,6.73
2024-01-25T06:16:37.117Z,6.68
2024-01-25T06:19:40.324Z,6.63
2024-01-25T06:22:43.482Z,6.71
2024-01-25T06:25:46.641Z,6.49
2024-01-25T06:28:50.116Z,6.97
2024-01-25T06:31:53.218Z,6.96
2024-01-25T06:34:56.819Z,6.78
2024-01-25T06:37:59.926Z,6.89
2024-01-25T06:41:04.284Z,6.94
2024-01-25T06:44:07.969Z,7.14
2024-01-25T06:47:11.748Z,7.00
2024-01-25T06:50:15.127Z,7.31
2024-01-25T06:53:18.920Z,7.22
2024-01-25T06:56:25.817Z,7.36
2024-01-25T06:59:29.677Z,7.54
2024-01-25T07:02:34.044Z,7.60
2024-01-25T07:05:38.121Z,7.78
2024-01-25T07:08:44.175Z,7.89
2024-01-25T07:11:48.880Z,7.89
2024-01-25T07:14:52.914Z,8.09
2024-01-25T07:18:00.343Z,8.08
2024-01-25T07:21:07.847Z,8.03
2024-01-25T07:24:17.878Z,8.09
2024-01-25T07:27:21.298Z,8.18
2024-01-25T07:30:26.236Z,8.32
2024-01-25T07:33:29.703Z,8.35
2024-01-25T07:36:36.857Z,8.40
2024-01-25T07:39:40.170Z,8.40
2024-01-25T07:42:43.660Z,8.21
2024-01-25T07:45:49.766Z,8.36
2024-01-25T07:48:54.743Z,8.42
2024-01-25T07:52:02.238Z,8.37
2024-01-25T07:55:06.920Z,8.42
2024-01-25T07:58:10.702Z,8.30
2024-01-25T08:01:20.493Z,8.56
2024-01-25T08:04:28.150Z,8.49
2024-01-25T08:07:31.445Z,8.64
2024-01-25T08:10:36.478Z,8.62
2024-01-25T08:13:45.983Z,8.70
2024-01-25T08:16:49.685Z,8.71
2024-01-25T08:19:53.309Z,8.70
2024-01-25T08:22:56.722Z,8.76
2024-01-25T08:26:00.298Z,8.81
2024-01-25T08:29:03.624Z,8.78
2024-01-25T08:32:07.161Z,8.69
2024-01-25T08:35:16.222Z,8.61
2024-01-25T08:38:19.593Z,8.67
2024-01-25T08:41:23.298Z,8.78
2024-01-25T08:44:26.618Z,8.85
2024-01-25T08:47:30.264Z,8.82
2024-01-25T08:50:34.786Z,8.81
2024-01-25T08:53:38.931Z,9.05
2024-01-25T08:56:42.263Z,9.27
2024-01-25T08:59:45.685Z,9.40
2024-01-25T09:02:49.084Z,9.44
2024-01-25T09:05:53.514Z,9.59
2024-01-25T09:08:57.493Z,9.56
2024-01-25T09:12:01.985Z,9.64
2024-01-25T09:15:05.962Z,9.74
2024-01-25T09:18:09.801Z,9.76
2024-01-25T09:21:14.568Z,9.80
2024-01-25T09:24:17.965Z,9.79
2024-01-25T09:27:21.651Z,9.81
2024-01-25T09:30:31.233Z,9.68
2024-01-25T09:33:39.386Z,9.75
2024-01-25T09:36:43.955Z,9.63
2024-01-25T09:39:50.122Z,9.70
2024-01-25T09:42:56.672Z,9.70
2024-01-25T09:46:01.546Z,9.72
2024-01-25T09:49:09.369Z,9.79
2024-01-25T09:52:20.670Z,9.72
2024-01-25T09:55:27.687Z,9.80
2024-01-25T09:58:41.145Z,9.77
2024-01-25T10:01:50.479Z,9.80
2024-01-25T10:04:55.361Z,9.92
2024-01-25T10:08:02.835Z,9.82
2024-01-25T10:11:09.497Z,9.91
2024-01-25T10:14:12.830Z,9.98
2024-01-25T10:17:21.878Z,9.93
2024-01-25T14:30:42.348Z,8.87
2024-01-25T14:33:46.658Z,8.80
2024-01-25T14:36:51.606Z,8.64
2024-01-25T14:40:06.951Z,8.59
2024-01-25T14:43:17.747Z,8.46
2024-01-25T14:46:20.873Z,8.45
2024-01-25T14:49:25.082Z,8.43
2024-01-25T14:52:28.816Z,8.42
2024-01-25T14:55:32.081Z,8.24
2024-01-25T14:58:35.862Z,8.16
2024-01-25T15:01:38.751Z,7.97
2024-01-25T15:04:42.460Z,7.82
2024-01-25T15:07:45.422Z,7.86
2024-01-25T15:10:48.731Z,7.83
2024-01-25T15:13:51.906Z,7.81
2024-01-25T15:16:55.255Z,7.82
2024-01-25T15:19:58.125Z,7.79
2024-01-25T15:23:03.009Z,7.84
2024-01-25T15:26:06.524Z,7.68
2024-01-25T15:29:09.841Z,7.66
2024-01-25T15:32:13.257Z,7.74
2024-01-25T15:35:16.752Z,7.70
2024-01-25T15:38:20.831Z,7.72
2024-01-25T15:41:24.028Z,7.87
2024-01-25T15:44:27.318Z,7.77
2024-01-25T15:47:30.485Z,7.66
2024-01-25T15:50:35.225Z,7.57
2024-01-25T15:53:38.529Z,7.69
2024-01-25T15:56:42.611Z,7.73
2024-01-25T15:59:48.404Z,7.80
2024-01-25T16:02:53.068Z,7.62
2024-01-25T16:05:58.156Z,7.65
2024-01-25T16:09:05.650Z,7.51
2024-01-25T16:12:10.849Z,7.32
2024-01-25T16:15:15.286Z,7.50
2024-01-25T16:18:19.146Z,7.66
2024-01-25T16:21:23.646Z,7.45
2024-01-25T16:24:27.936Z,7.41
2024-01-25T16:27:31.394Z,7.41
2024-01-25T16:30:35.466Z,7.33
2024-01-25T16:33:38.763Z,7.20
2024-01-25T16:36:42.432Z,7.46
2024-01-25T16:39:45.716Z,7.54
2024-01-25T16:42:49.516Z,7.44
2024-01-25T16:45:54.909Z,7.24
2024-01-25T16:48:59.150Z,7.27
2024-01-25T16:52:02.704Z,7.35
2024-01-25T16:55:08.535Z,7.29
2024-01-25T16:58:11.620Z,7.63
2024-01-25T17:01:17.021Z,7.36
2024-01-25T17:04:20.629Z,7.22
2024-01-25T17:07:24.260Z,7.05
2024-01-25T17:10:27.893Z,7.06
2024-01-25T17:13:31.481Z,7.36
2024-01-25T17:16:34.500Z,7.15
2024-01-25T17:19:39.263Z,7.18
2024-01-25T17:22:42.269Z,7.06
2024-01-25T17:25:45.827Z,7.01
2024-01-25T17:28:50.206Z,7.00
2024-01-25T17:31:54.083Z,7.05
2024-01-25T17:34:57.950Z,6.94
2024-01-25T17:38:02.322Z,6.94
2024-01-25T17:41:05.476Z,6.77
2024-01-25T17:44:09.776Z,6.64
2024-01-25T17:47:13.005Z,6.73
2024-01-25T17:50:16.616Z,6.75
2024-01-25T17:53:19.845Z,6.69
2024-01-25T17:56:23.385Z,6.63
2024-01-25T17:59:28.316Z,6.58
2024-01-25T18:02:32.191Z,6.61
2024-01-25T18:05:36.553Z,6.72
2024-01-25T18:08:41.321Z,6.66
2024-01-25T18:11:46.962Z,6.59
2024-01-25T18:14:50.969Z,6.68
2024-01-25T18:17:55.814Z,6.75
2024-01-25T18:21:00.220Z,6.89
2024-01-25T18:24:04.504Z,6.73
2024-01-25T18:27:08.261Z,6.82
2024-01-25T18:30:13.543Z,6.87
2024-01-25T18:33:18.136Z,6.89
2024-01-25T18:36:22.126Z,6.83
2024-01-25T18:39:26.383Z,6.82
2024-01-25T18:42:32.249Z,7.04
2024-01-25T18:45:36.930Z,6.93
2024-01-25T18:48:42.454Z,6.71
2024-01-25T18:51:47.065Z,6.66
2024-01-25T18:54:53.733Z,6.78
2024-01-25T18:57:58.939Z,6.83
2024-01-25T19:01:04.979Z,6.94
2024-01-25T19:04:12.066Z,6.68
2024-01-25T19:07:17.332Z,6.71
2024-01-25T19:10:22.735Z,6.46
2024-01-25T19:13:27.751Z,6.54
2024-01-25T19:16:32.648Z,6.44
2024-01-25T19:19:39.528Z,6.51
2024-01-25T19:22:44.474Z,6.55
2024-01-25T19:25:50.808Z,6.47
2024-01-25T19:28:56.111Z,6.41
2024-01-25T19:32:00.660Z,6.17
2024-01-25T19:35:06.926Z,6.17
2024-01-25T19:38:11.839Z,6.22
2024-01-25T19:41:17.055Z,6.51
2024-01-25T19:44:22.015Z,6.31
2024-01-25T19:47:27.290Z,6.35
2024-01-25T19:50:32.641Z,6.19
2024-01-25T19:53:37.311Z,6.19
2024-01-25T19:56:43.012Z,6.06
2024-01-25T19:59:48.832Z,5.96
2024-01-25T20:02:56.287Z,5.98
2024-01-25T20:06:02.028Z,5.76
2024-01-25T20:09:07.800Z,5.60
2024-01-25T20:12:13.199Z,5.69
2024-01-25T20:15:20.960Z,5.75
2024-01-25T20:18:27.361Z,5.69
2024-01-25T20:21:32.260Z,5.43
2024-01-25T20:24:37.879Z,5.86
2024-01-25T20:27:44.679Z,5.79
2024-01-25T20:30:52.141Z,5.63
2024-01-25T20:33:56.889Z,5.84
2024-01-25T20:37:02.502Z,5.80
2024-01-25T20:40:09.736Z,6.01
2024-01-25T20:43:15.275Z,6.00
2024-01-25T20:46:19.942Z,5.97
2024-01-25T20:49:25.603Z,5.86
2024-01-25T20:52:30.272Z,5.78
2024-01-25T20:55:35.002Z,5.65
2024-01-25T20:58:39.554Z,5.72
2024-01-25T21:01:44.226Z,5.50
2024-01-25T21:04:47.684Z,5.67
2024-01-25T21:07:51.550Z,5.54
2024-01-25T21:10:55.403Z,5.65
2024-01-25T21:13:59.388Z,5.38
2024-01-25T21:17:02.613Z,5.49
2024-01-25T21:20:08.800Z,5.50
2024-01-25T21:23:12.192Z,5.40
2024-01-25T21:26:15.872Z,5.45
2024-01-25T21:29:19.227Z,5.52
2024-01-25T21:32:22.813Z,5.67
2024-01-25T21:35:27.738Z,5.63
2024-01-25T21:38:31.425Z,5.72
2024-01-25T21:41:35.097Z,5.65
2024-01-25T21:44:39.078Z,5.70
2024-01-25T21:47:42.960Z,5.39
2024-01-25T21:50:46.782Z,5.26
2024-01-25T21:53:50.003Z,5.38
2024-01-25T21:56:53.673Z,5.41
2024-01-25T21:59:57.104Z,5.27
2024-01-25T22:03:01.291Z,5.25
2024-01-25T22:06:05.420Z,5.27
2024-01-25T22:09:08.920Z,5.35
2024-01-25T22:12:13.534Z,5.18
2024-01-25T22:15:16.924Z,5.57
2024-01-25T22:18:20.929Z,5.57
2024-01-25T22:21:24.276Z,5.48
2024-01-25T22:24:29.260Z,5.65
2024-01-25T22:27:32.807Z,5.58
2024-01-25T22:30:36.564Z,5.63
2024-01-25T22:33:40.603Z,5.61
2024-01-25T22:36:45.535Z,5.67
2024-01-25T22:39:48.938Z,5.75
2024-01-25T22:42:52.528Z,5.69
2024-01-25T22:45:56.704Z,5.62
2024-01-25T22:49:00.624Z,5.30
2024-01-25T22:52:04.622Z,5.57
2024-01-25T22:55:08.782Z,5.54
2024-01-25T22:58:13.489Z,5.33
2024-01-25T23:01:17.921Z,5.46
2024-01-25T23:04:21.756Z,5.30
2024-01-25T23:07:25.285Z,5.39
2024-01-25T23:10:28.606Z,5.53
2024-01-25T23:13:32.744Z,5.41
2024-01-25T23:16:36.762Z,5.38
2024-01-25T23:19:40.446Z,5.28
2024-01-25T23:22:43.892Z,5.33
2024-01-25T23:25:48.829Z,5.35
2024-01-25T23:28:52.138Z,5.18
2024-01-25T23:31:56.564Z,5.00
2024-01-25T23:35:00.235Z,5.05
2024-01-25T23:38:04.556Z,5.02
2024-01-25T23:41:08.228Z,5.08
2024-01-25T23:44:11.959Z,5.07
2024-01-25T23:47:16.552Z,5.09
2024-01-25T23:50:20.413Z,5.14
2024-01-25T23:53:24.317Z,5.15
2024-01-25T23:56:28.060Z,4.92
2024-01-25T23:59:31.367Z,5.09
